Главная страница
METAR-TAF:

METAR-TAF

Аэропорты :

Веллингтон, Новая Зеландия

широта: 41-20S, долгота: 174-48E, высота над уровнем моря: 12 м

Текущие метеонаблюдения

Эта сводка был подготовлена 34 минут назад, в 22:30 UTC
Ветер 16 Узел от юго-юго-восточный
Температура 12°C
Влажность 71%
Давление 1017 hPa
Видимость 10 км и более

METAR: NZWN 212230Z AUTO 16016KT 9999 SCT022/// 12/07 Q1017 NOSIG

Время: 11:04 (23:04 UTC)

Прогноз

Эта сводка был подготовлена 6 часа и 2 минут назад, в 17:02 UTC
Прогноз действительный с 21-го 18 UTC до 22-го 18 UTC
Ветер 20 Узел от южный
Видимость 10 км и более
небольшая облачность на высоте 2000 фута
изменения
С 21-го 22 UTC до 22-го 00 UTC
Ветер 10 Узел от юго-юго-восточный
изменения
С 22-го 10 UTC до 22-го 12 UTC
Ветер 5 Узел от северо-северо-восточный

TAF: NZWN 211702Z 2118/2218 17020KT 9999 FEW020 BECMG 2122/2200 16010KT BECMG 2210/2212 02005KT

Метеонаблюдения и прогнозы для более 4000 аэропортов (сводки METAR и TAF).

Имеющиеся станции представлены на карте желтыми и красными точками.

Чтобы увидеть название станции, наведите на нее мышь.

Затем щелкните, чтобы увидеть метеонаблюдения и метеопрогнозы.

Управление картой: чтобы увеличить масштаб, щелкните зеленые кнопки с черным крестиком; чтобы уменьшить масштаб, щелкните зеленую кнопку с тире; для просмотра соседних карт щелкайте зеленые стрелки.


METAR-TAF: